KDFI/DFI METAR and TAF weather

Enter ICAO airport designator
Station Type Date Time Source
KDFI METAR 2019/06/20 06:53 UTC NOAA

KDFI 200653Z AUTO 00000KT 5SM BR BKN039 BKN050 OVC110 20/18 A2959 RMK AO2 SLP014 T02000183


Station Type Date Time Source
KDFI Decoded METAR 2019/06/20 06:53 UTC NOAA

DEFIANCE MEMORIAL AIRPORT, OH, United States (KDFI) 41-20N 84-26W 219M
Jun 20, 2019 - 02:53 AM EDT / 2019.06.20 0653 UTC
Wind: Calm:0
Visibility: 5 mile(s):0
Sky conditions: overcast
Weather: mist
Temperature: 68.0 F (20.0 C)
Dew Point: 64.9 F (18.3 C)
Relative Humidity: 89%
Pressure (altimeter): 29.59 in. Hg (1002 hPa)
ob: KDFI 200653Z AUTO 00000KT 5SM BR BKN039 BKN050 OVC110 20/18 A2959 RMK AO2 SLP014 T02000183
cycle: 7

Station Type Date Time Source
KDFI TAF UTC NOAA

Error!

Example: see airport list